sensor_id;sensor_type;location;lat;lon;timestamp;P1;durP1;ratioP1;P2;durP2;ratioP2
7795;SDS011;3942;51.518;6.912;2024-03-08T00:03:18;29.13;;;17.17;;
7795;SDS011;3942;51.518;6.912;2024-03-08T00:08:20;27.40;;;16.50;;
7795;SDS011;3942;51.518;6.912;2024-03-08T00:13:24;33.60;;;18.50;;
7795;SDS011;3942;51.518;6.912;2024-03-08T00:18:26;31.95;;;20.05;;
7795;SDS011;3942;51.518;6.912;2024-03-08T00:23:28;37.53;;;19.50;;
7795;SDS011;3942;51.518;6.912;2024-03-08T00:28:33;36.55;;;18.40;;
7795;SDS011;3942;51.518;6.912;2024-03-08T00:33:35;21.17;;;10.38;;
7795;SDS011;3942;51.518;6.912;2024-03-08T00:38:37;26.63;;;12.50;;
7795;SDS011;3942;51.518;6.912;2024-03-08T00:43:41;23.70;;;14.50;;
7795;SDS011;3942;51.518;6.912;2024-03-08T00:48:43;30.67;;;18.33;;
7795;SDS011;3942;51.518;6.912;2024-03-08T00:53:45;35.88;;;21.23;;
7795;SDS011;3942;51.518;6.912;2024-03-08T00:58:49;32.92;;;20.10;;
7795;SDS011;3942;51.518;6.912;2024-03-08T01:03:51;37.78;;;22.38;;
7795;SDS011;3942;51.518;6.912;2024-03-08T01:08:54;37.10;;;22.80;;
7795;SDS011;3942;51.518;6.912;2024-03-08T01:13:58;35.25;;;22.85;;
7795;SDS011;3942;51.518;6.912;2024-03-08T01:19:00;34.78;;;22.30;;
7795;SDS011;3942;51.518;6.912;2024-03-08T01:24:03;41.00;;;22.27;;
7795;SDS011;3942;51.518;6.912;2024-03-08T01:29:07;38.90;;;23.40;;
7795;SDS011;3942;51.518;6.912;2024-03-08T01:34:09;41.20;;;25.05;;
7795;SDS011;3942;51.518;6.912;2024-03-08T01:39:11;32.92;;;20.38;;
7795;SDS011;3942;51.518;6.912;2024-03-08T01:44:15;36.88;;;21.70;;
7795;SDS011;3942;51.518;6.912;2024-03-08T01:49:17;42.10;;;22.50;;
7795;SDS011;3942;51.518;6.912;2024-03-08T01:54:20;45.78;;;25.88;;
7795;SDS011;3942;51.518;6.912;2024-03-08T01:59:24;37.85;;;21.23;;
7795;SDS011;3942;51.518;6.912;2024-03-08T02:04:28;43.75;;;23.92;;
7795;SDS011;3942;51.518;6.912;2024-03-08T02:09:31;39.55;;;22.52;;
7795;SDS011;3942;51.518;6.912;2024-03-08T02:14:34;31.27;;;17.75;;
7795;SDS011;3942;51.518;6.912;2024-03-08T02:19:37;40.25;;;25.13;;
7795;SDS011;3942;51.518;6.912;2024-03-08T02:24:40;28.70;;;15.50;;
7795;SDS011;3942;51.518;6.912;2024-03-08T02:29:42;37.13;;;22.15;;
7795;SDS011;3942;51.518;6.912;2024-03-08T02:34:45;39.47;;;23.20;;
7795;SDS011;3942;51.518;6.912;2024-03-08T02:39:48;44.70;;;24.80;;
7795;SDS011;3942;51.518;6.912;2024-03-08T02:44:50;39.55;;;23.48;;
7795;SDS011;3942;51.518;6.912;2024-03-08T02:49:53;49.63;;;25.50;;
7795;SDS011;3942;51.518;6.912;2024-03-08T02:54:56;48.90;;;25.30;;
7795;SDS011;3942;51.518;6.912;2024-03-08T02:59:58;41.25;;;22.63;;
7795;SDS011;3942;51.518;6.912;2024-03-08T03:05:00;40.20;;;20.08;;
7795;SDS011;3942;51.518;6.912;2024-03-08T03:10:07;34.38;;;19.70;;
7795;SDS011;3942;51.518;6.912;2024-03-08T03:15:10;39.17;;;20.58;;
7795;SDS011;3942;51.518;6.912;2024-03-08T03:20:12;46.95;;;25.25;;
7795;SDS011;3942;51.518;6.912;2024-03-08T03:25:23;47.60;;;24.63;;
7795;SDS011;3942;51.518;6.912;2024-03-08T03:30:29;44.33;;;23.83;;
7795;SDS011;3942;51.518;6.912;2024-03-08T03:35:33;35.97;;;22.52;;
7795;SDS011;3942;51.518;6.912;2024-03-08T03:40:37;48.47;;;24.45;;
7795;SDS011;3942;51.518;6.912;2024-03-08T03:45:40;39.45;;;21.48;;
7795;SDS011;3942;51.518;6.912;2024-03-08T03:50:42;46.28;;;25.25;;
7795;SDS011;3942;51.518;6.912;2024-03-08T03:55:45;38.50;;;19.80;;
7795;SDS011;3942;51.518;6.912;2024-03-08T04:00:48;30.52;;;16.50;;
7795;SDS011;3942;51.518;6.912;2024-03-08T04:05:56;34.55;;;20.33;;
7795;SDS011;3942;51.518;6.912;2024-03-08T04:10:59;40.53;;;23.48;;
7795;SDS011;3942;51.518;6.912;2024-03-08T04:16:02;43.45;;;22.83;;
7795;SDS011;3942;51.518;6.912;2024-03-08T04:21:08;41.42;;;22.95;;
7795;SDS011;3942;51.518;6.912;2024-03-08T04:26:12;35.90;;;18.40;;
7795;SDS011;3942;51.518;6.912;2024-03-08T04:31:14;40.08;;;23.50;;
7795;SDS011;3942;51.518;6.912;2024-03-08T04:36:16;40.78;;;22.63;;
7795;SDS011;3942;51.518;6.912;2024-03-08T04:41:21;45.47;;;24.85;;
7795;SDS011;3942;51.518;6.912;2024-03-08T04:46:23;32.70;;;18.33;;
7795;SDS011;3942;51.518;6.912;2024-03-08T04:51:25;45.88;;;25.67;;
7795;SDS011;3942;51.518;6.912;2024-03-08T04:56:29;38.83;;;22.05;;
7795;SDS011;3942;51.518;6.912;2024-03-08T05:01:31;41.97;;;23.63;;
7795;SDS011;3942;51.518;6.912;2024-03-08T05:06:33;42.72;;;23.88;;
7795;SDS011;3942;51.518;6.912;2024-03-08T05:11:37;46.65;;;26.50;;
7795;SDS011;3942;51.518;6.912;2024-03-08T05:16:43;47.33;;;25.38;;
7795;SDS011;3942;51.518;6.912;2024-03-08T05:21:48;52.65;;;27.55;;
7795;SDS011;3942;51.518;6.912;2024-03-08T05:26:52;43.55;;;22.50;;
7795;SDS011;3942;51.518;6.912;2024-03-08T05:31:54;51.88;;;26.77;;
7795;SDS011;3942;51.518;6.912;2024-03-08T05:36:57;48.78;;;26.75;;
7795;SDS011;3942;51.518;6.912;2024-03-08T05:42:01;47.88;;;26.00;;
7795;SDS011;3942;51.518;6.912;2024-03-08T05:47:03;50.25;;;27.48;;
7795;SDS011;3942;51.518;6.912;2024-03-08T05:52:07;49.35;;;26.73;;
7795;SDS011;3942;51.518;6.912;2024-03-08T05:57:11;56.38;;;25.40;;
7795;SDS011;3942;51.518;6.912;2024-03-08T06:02:14;46.40;;;23.95;;
7795;SDS011;3942;51.518;6.912;2024-03-08T06:07:19;52.28;;;28.27;;
7795;SDS011;3942;51.518;6.912;2024-03-08T06:12:23;49.55;;;26.40;;
7795;SDS011;3942;51.518;6.912;2024-03-08T06:17:29;46.20;;;23.45;;
7795;SDS011;3942;51.518;6.912;2024-03-08T06:22:31;47.53;;;25.45;;
7795;SDS011;3942;51.518;6.912;2024-03-08T06:27:34;30.33;;;16.85;;
7795;SDS011;3942;51.518;6.912;2024-03-08T06:32:37;48.45;;;24.58;;
7795;SDS011;3942;51.518;6.912;2024-03-08T06:37:39;46.83;;;23.52;;
7795;SDS011;3942;51.518;6.912;2024-03-08T06:42:43;42.50;;;23.75;;
7795;SDS011;3942;51.518;6.912;2024-03-08T06:47:46;45.70;;;24.92;;
7795;SDS011;3942;51.518;6.912;2024-03-08T06:52:49;42.33;;;22.63;;
7795;SDS011;3942;51.518;6.912;2024-03-08T06:57:55;46.92;;;24.98;;
7795;SDS011;3942;51.518;6.912;2024-03-08T07:02:58;47.75;;;26.27;;
7795;SDS011;3942;51.518;6.912;2024-03-08T07:08:01;47.20;;;25.45;;
7795;SDS011;3942;51.518;6.912;2024-03-08T07:13:04;37.90;;;21.85;;
7795;SDS011;3942;51.518;6.912;2024-03-08T07:18:06;34.30;;;16.75;;
7795;SDS011;3942;51.518;6.912;2024-03-08T07:23:14;47.15;;;24.58;;
7795;SDS011;3942;51.518;6.912;2024-03-08T07:28:38;46.65;;;23.65;;
7795;SDS011;3942;51.518;6.912;2024-03-08T07:33:40;46.58;;;23.30;;
7795;SDS011;3942;51.518;6.912;2024-03-08T07:38:42;58.15;;;29.20;;
7795;SDS011;3942;51.518;6.912;2024-03-08T07:43:48;41.90;;;24.88;;
7795;SDS011;3942;51.518;6.912;2024-03-08T07:48:50;38.47;;;24.05;;
7795;SDS011;3942;51.518;6.912;2024-03-08T07:53:53;51.10;;;27.10;;
7795;SDS011;3942;51.518;6.912;2024-03-08T07:58:57;41.75;;;23.10;;
7795;SDS011;3942;51.518;6.912;2024-03-08T08:03:59;44.00;;;24.85;;
7795;SDS011;3942;51.518;6.912;2024-03-08T08:09:02;43.38;;;22.00;;
7795;SDS011;3942;51.518;6.912;2024-03-08T08:14:07;42.75;;;23.67;;
7795;SDS011;3942;51.518;6.912;2024-03-08T08:19:09;40.20;;;20.90;;
7795;SDS011;3942;51.518;6.912;2024-03-08T08:24:12;40.33;;;12.73;;
7795;SDS011;3942;51.518;6.912;2024-03-08T08:29:15;37.85;;;21.10;;
7795;SDS011;3942;51.518;6.912;2024-03-08T08:34:17;43.72;;;21.85;;
7795;SDS011;3942;51.518;6.912;2024-03-08T08:39:22;26.65;;;14.90;;
7795;SDS011;3942;51.518;6.912;2024-03-08T08:44:27;34.83;;;20.27;;
7795;SDS011;3942;51.518;6.912;2024-03-08T08:49:29;32.55;;;16.95;;
7795;SDS011;3942;51.518;6.912;2024-03-08T08:54:31;45.65;;;24.08;;
7795;SDS011;3942;51.518;6.912;2024-03-08T08:59:35;38.63;;;22.83;;
7795;SDS011;3942;51.518;6.912;2024-03-08T09:04:39;41.38;;;23.90;;
7795;SDS011;3942;51.518;6.912;2024-03-08T09:09:41;35.08;;;20.20;;
7795;SDS011;3942;51.518;6.912;2024-03-08T09:14:45;36.85;;;20.33;;
7795;SDS011;3942;51.518;6.912;2024-03-08T09:19:48;34.67;;;18.85;;
7795;SDS011;3942;51.518;6.912;2024-03-08T09:24:50;26.25;;;16.63;;
7795;SDS011;3942;51.518;6.912;2024-03-08T09:29:53;32.50;;;19.25;;
7795;SDS011;3942;51.518;6.912;2024-03-08T09:34:55;36.78;;;20.77;;
7795;SDS011;3942;51.518;6.912;2024-03-08T09:39:58;32.80;;;17.50;;
7795;SDS011;3942;51.518;6.912;2024-03-08T09:45:02;26.08;;;13.38;;
7795;SDS011;3942;51.518;6.912;2024-03-08T09:50:06;34.40;;;19.80;;
7795;SDS011;3942;51.518;6.912;2024-03-08T09:55:09;36.50;;;20.08;;
7795;SDS011;3942;51.518;6.912;2024-03-08T10:00:14;37.58;;;18.90;;
7795;SDS011;3942;51.518;6.912;2024-03-08T10:05:24;32.60;;;19.63;;
7795;SDS011;3942;51.518;6.912;2024-03-08T10:10:26;25.00;;;15.05;;
7795;SDS011;3942;51.518;6.912;2024-03-08T10:15:30;32.03;;;17.92;;
7795;SDS011;3942;51.518;6.912;2024-03-08T10:20:33;29.77;;;17.90;;
7795;SDS011;3942;51.518;6.912;2024-03-08T10:25:35;30.58;;;17.52;;
7795;SDS011;3942;51.518;6.912;2024-03-08T10:30:39;17.75;;;10.10;;
7795;SDS011;3942;51.518;6.912;2024-03-08T10:35:48;35.67;;;19.73;;
7795;SDS011;3942;51.518;6.912;2024-03-08T10:40:50;28.52;;;17.40;;
7795;SDS011;3942;51.518;6.912;2024-03-08T10:45:59;25.17;;;14.55;;
7795;SDS011;3942;51.518;6.912;2024-03-08T10:51:08;34.10;;;19.02;;
7795;SDS011;3942;51.518;6.912;2024-03-08T10:56:13;30.40;;;18.38;;
7795;SDS011;3942;51.518;6.912;2024-03-08T11:01:16;22.13;;;13.57;;
7795;SDS011;3942;51.518;6.912;2024-03-08T11:06:19;25.13;;;13.70;;
7795;SDS011;3942;51.518;6.912;2024-03-08T11:11:27;26.80;;;14.07;;
7795;SDS011;3942;51.518;6.912;2024-03-08T11:16:39;29.92;;;16.42;;
7795;SDS011;3942;51.518;6.912;2024-03-08T11:21:42;27.88;;;15.88;;
7795;SDS011;3942;51.518;6.912;2024-03-08T11:26:45;33.05;;;19.75;;
7795;SDS011;3942;51.518;6.912;2024-03-08T11:31:49;31.92;;;17.75;;
7795;SDS011;3942;51.518;6.912;2024-03-08T11:36:52;27.92;;;15.30;;
7795;SDS011;3942;51.518;6.912;2024-03-08T11:41:56;28.23;;;14.18;;
7795;SDS011;3942;51.518;6.912;2024-03-08T11:47:00;25.10;;;13.95;;
7795;SDS011;3942;51.518;6.912;2024-03-08T11:52:04;31.27;;;20.00;;
7795;SDS011;3942;51.518;6.912;2024-03-08T11:57:07;31.08;;;17.73;;
7795;SDS011;3942;51.518;6.912;2024-03-08T12:02:11;24.23;;;14.10;;
7795;SDS011;3942;51.518;6.912;2024-03-08T12:07:14;27.52;;;16.40;;
7795;SDS011;3942;51.518;6.912;2024-03-08T12:12:19;32.20;;;18.38;;
7795;SDS011;3942;51.518;6.912;2024-03-08T12:17:23;31.00;;;19.45;;
7795;SDS011;3942;51.518;6.912;2024-03-08T12:22:25;29.00;;;18.17;;
7795;SDS011;3942;51.518;6.912;2024-03-08T12:27:27;28.85;;;17.20;;
7795;SDS011;3942;51.518;6.912;2024-03-08T12:32:31;22.23;;;11.60;;
7795;SDS011;3942;51.518;6.912;2024-03-08T12:37:33;24.15;;;13.70;;
7795;SDS011;3942;51.518;6.912;2024-03-08T12:42:35;31.95;;;17.95;;
7795;SDS011;3942;51.518;6.912;2024-03-08T12:47:40;24.98;;;15.60;;
7795;SDS011;3942;51.518;6.912;2024-03-08T12:52:43;28.27;;;16.55;;
7795;SDS011;3942;51.518;6.912;2024-03-08T12:57:45;18.50;;;12.23;;
7795;SDS011;3942;51.518;6.912;2024-03-08T13:02:50;18.02;;;10.73;;
7795;SDS011;3942;51.518;6.912;2024-03-08T13:07:52;24.25;;;14.05;;
7795;SDS011;3942;51.518;6.912;2024-03-08T13:12:55;25.00;;;14.25;;
7795;SDS011;3942;51.518;6.912;2024-03-08T13:17:58;31.23;;;15.73;;
7795;SDS011;3942;51.518;6.912;2024-03-08T13:23:01;23.27;;;13.35;;
7795;SDS011;3942;51.518;6.912;2024-03-08T13:28:03;24.60;;;14.43;;
7795;SDS011;3942;51.518;6.912;2024-03-08T13:33:08;21.65;;;13.30;;
7795;SDS011;3942;51.518;6.912;2024-03-08T13:38:10;15.60;;;7.90;;
7795;SDS011;3942;51.518;6.912;2024-03-08T13:43:13;16.92;;;9.85;;
7795;SDS011;3942;51.518;6.912;2024-03-08T13:48:17;7.07;;;4.15;;
7795;SDS011;3942;51.518;6.912;2024-03-08T13:53:19;14.52;;;6.90;;
7795;SDS011;3942;51.518;6.912;2024-03-08T13:58:21;10.90;;;5.68;;
7795;SDS011;3942;51.518;6.912;2024-03-08T14:03:25;18.05;;;9.55;;
7795;SDS011;3942;51.518;6.912;2024-03-08T14:08:27;15.00;;;9.27;;
7795;SDS011;3942;51.518;6.912;2024-03-08T14:13:30;13.77;;;8.00;;
7795;SDS011;3942;51.518;6.912;2024-03-08T14:18:33;17.48;;;9.68;;
7795;SDS011;3942;51.518;6.912;2024-03-08T14:23:36;13.88;;;9.20;;
7795;SDS011;3942;51.518;6.912;2024-03-08T14:28:38;20.65;;;11.25;;
7795;SDS011;3942;51.518;6.912;2024-03-08T14:33:42;18.63;;;11.13;;
7795;SDS011;3942;51.518;6.912;2024-03-08T14:38:49;18.20;;;12.13;;
7795;SDS011;3942;51.518;6.912;2024-03-08T14:43:51;16.52;;;10.15;;
7795;SDS011;3942;51.518;6.912;2024-03-08T14:48:55;20.50;;;12.45;;
7795;SDS011;3942;51.518;6.912;2024-03-08T14:53:57;24.20;;;14.73;;
7795;SDS011;3942;51.518;6.912;2024-03-08T14:58:59;21.00;;;10.75;;
7795;SDS011;3942;51.518;6.912;2024-03-08T15:04:03;17.17;;;10.70;;
7795;SDS011;3942;51.518;6.912;2024-03-08T15:09:08;21.35;;;12.55;;
7795;SDS011;3942;51.518;6.912;2024-03-08T15:14:17;16.48;;;9.30;;
7795;SDS011;3942;51.518;6.912;2024-03-08T15:19:20;19.25;;;11.48;;
7795;SDS011;3942;51.518;6.912;2024-03-08T15:24:23;23.20;;;13.30;;
7795;SDS011;3942;51.518;6.912;2024-03-08T15:29:25;24.27;;;13.55;;
7795;SDS011;3942;51.518;6.912;2024-03-08T15:34:28;22.45;;;13.07;;
7795;SDS011;3942;51.518;6.912;2024-03-08T15:39:32;21.35;;;12.52;;
7795;SDS011;3942;51.518;6.912;2024-03-08T15:44:34;21.73;;;12.85;;
7795;SDS011;3942;51.518;6.912;2024-03-08T15:49:39;20.20;;;12.88;;
7795;SDS011;3942;51.518;6.912;2024-03-08T15:54:41;22.58;;;13.73;;
7795;SDS011;3942;51.518;6.912;2024-03-08T15:59:43;21.70;;;10.13;;
7795;SDS011;3942;51.518;6.912;2024-03-08T16:04:47;35.40;;;11.98;;
7795;SDS011;3942;51.518;6.912;2024-03-08T16:09:50;25.17;;;14.10;;
7795;SDS011;3942;51.518;6.912;2024-03-08T16:14:52;22.20;;;13.50;;
7795;SDS011;3942;51.518;6.912;2024-03-08T16:19:56;31.83;;;16.63;;
7795;SDS011;3942;51.518;6.912;2024-03-08T16:24:59;26.17;;;14.05;;
7795;SDS011;3942;51.518;6.912;2024-03-08T16:30:05;25.95;;;15.85;;
7795;SDS011;3942;51.518;6.912;2024-03-08T16:35:10;30.90;;;16.10;;
7795;SDS011;3942;51.518;6.912;2024-03-08T16:40:16;25.00;;;14.65;;
7795;SDS011;3942;51.518;6.912;2024-03-08T16:45:20;19.17;;;9.45;;
7795;SDS011;3942;51.518;6.912;2024-03-08T16:50:24;31.73;;;17.67;;
7795;SDS011;3942;51.518;6.912;2024-03-08T16:55:27;23.98;;;12.70;;
7795;SDS011;3942;51.518;6.912;2024-03-08T17:00:30;26.55;;;14.07;;
7795;SDS011;3942;51.518;6.912;2024-03-08T17:05:33;19.27;;;11.25;;
7795;SDS011;3942;51.518;6.912;2024-03-08T17:10:38;18.83;;;10.80;;
7795;SDS011;3942;51.518;6.912;2024-03-08T17:15:41;21.35;;;11.60;;
7795;SDS011;3942;51.518;6.912;2024-03-08T17:20:44;14.82;;;8.75;;
7795;SDS011;3942;51.518;6.912;2024-03-08T17:25:47;16.02;;;8.77;;
7795;SDS011;3942;51.518;6.912;2024-03-08T17:30:49;18.48;;;10.45;;
7795;SDS011;3942;51.518;6.912;2024-03-08T17:35:53;15.90;;;9.13;;
7795;SDS011;3942;51.518;6.912;2024-03-08T17:40:55;20.25;;;10.43;;
7795;SDS011;3942;51.518;6.912;2024-03-08T17:45:59;19.65;;;10.35;;
7795;SDS011;3942;51.518;6.912;2024-03-08T17:51:06;22.73;;;12.88;;
7795;SDS011;3942;51.518;6.912;2024-03-08T17:56:08;30.38;;;17.05;;
7795;SDS011;3942;51.518;6.912;2024-03-08T18:01:12;23.98;;;13.77;;
7795;SDS011;3942;51.518;6.912;2024-03-08T18:06:15;24.63;;;13.73;;
7795;SDS011;3942;51.518;6.912;2024-03-08T18:11:18;24.17;;;14.13;;
7795;SDS011;3942;51.518;6.912;2024-03-08T18:16:22;19.52;;;9.80;;
7795;SDS011;3942;51.518;6.912;2024-03-08T18:21:25;17.00;;;8.75;;
7795;SDS011;3942;51.518;6.912;2024-03-08T18:26:28;19.55;;;11.18;;
7795;SDS011;3942;51.518;6.912;2024-03-08T18:31:33;26.42;;;14.88;;
7795;SDS011;3942;51.518;6.912;2024-03-08T18:36:37;28.10;;;17.25;;
7795;SDS011;3942;51.518;6.912;2024-03-08T18:41:39;32.72;;;18.20;;
7795;SDS011;3942;51.518;6.912;2024-03-08T18:46:41;32.25;;;19.15;;
7795;SDS011;3942;51.518;6.912;2024-03-08T18:51:45;31.73;;;18.70;;
7795;SDS011;3942;51.518;6.912;2024-03-08T18:56:52;28.92;;;15.60;;
7795;SDS011;3942;51.518;6.912;2024-03-08T19:01:57;30.33;;;18.05;;
7795;SDS011;3942;51.518;6.912;2024-03-08T19:07:01;36.72;;;17.88;;
7795;SDS011;3942;51.518;6.912;2024-03-08T19:12:05;31.85;;;17.73;;
7795;SDS011;3942;51.518;6.912;2024-03-08T19:17:08;36.60;;;20.98;;
7795;SDS011;3942;51.518;6.912;2024-03-08T19:22:13;31.35;;;17.95;;
7795;SDS011;3942;51.518;6.912;2024-03-08T19:27:17;33.95;;;19.45;;
7795;SDS011;3942;51.518;6.912;2024-03-08T19:32:19;39.15;;;23.70;;
7795;SDS011;3942;51.518;6.912;2024-03-08T19:37:22;35.92;;;20.63;;
7795;SDS011;3942;51.518;6.912;2024-03-08T19:42:25;31.88;;;16.20;;
7795;SDS011;3942;51.518;6.912;2024-03-08T19:47:27;31.20;;;19.63;;
7795;SDS011;3942;51.518;6.912;2024-03-08T19:52:31;39.40;;;19.33;;
7795;SDS011;3942;51.518;6.912;2024-03-08T19:57:35;36.53;;;19.90;;
7795;SDS011;3942;51.518;6.912;2024-03-08T20:02:37;38.03;;;19.00;;
7795;SDS011;3942;51.518;6.912;2024-03-08T20:07:45;43.50;;;25.70;;
7795;SDS011;3942;51.518;6.912;2024-03-08T20:12:47;38.63;;;21.75;;
7795;SDS011;3942;51.518;6.912;2024-03-08T20:17:50;38.10;;;19.52;;
7795;SDS011;3942;51.518;6.912;2024-03-08T20:22:53;45.05;;;24.48;;
7795;SDS011;3942;51.518;6.912;2024-03-08T20:27:56;37.35;;;22.02;;
7795;SDS011;3942;51.518;6.912;2024-03-08T20:33:01;35.88;;;19.83;;
7795;SDS011;3942;51.518;6.912;2024-03-08T20:38:05;44.35;;;24.80;;
7795;SDS011;3942;51.518;6.912;2024-03-08T20:43:09;38.47;;;22.10;;
7795;SDS011;3942;51.518;6.912;2024-03-08T20:48:14;46.95;;;27.20;;
7795;SDS011;3942;51.518;6.912;2024-03-08T20:53:17;50.80;;;27.77;;
7795;SDS011;3942;51.518;6.912;2024-03-08T20:58:19;46.80;;;24.15;;
7795;SDS011;3942;51.518;6.912;2024-03-08T21:03:23;49.75;;;26.95;;
7795;SDS011;3942;51.518;6.912;2024-03-08T21:08:28;50.33;;;26.80;;
7795;SDS011;3942;51.518;6.912;2024-03-08T21:13:30;37.90;;;18.77;;
7795;SDS011;3942;51.518;6.912;2024-03-08T21:18:35;44.25;;;24.23;;
7795;SDS011;3942;51.518;6.912;2024-03-08T21:23:40;49.70;;;27.05;;
7795;SDS011;3942;51.518;6.912;2024-03-08T21:28:42;49.03;;;28.50;;
7795;SDS011;3942;51.518;6.912;2024-03-08T21:33:44;52.08;;;25.77;;
7795;SDS011;3942;51.518;6.912;2024-03-08T21:38:49;45.08;;;24.75;;
7795;SDS011;3942;51.518;6.912;2024-03-08T21:43:51;49.20;;;24.63;;
7795;SDS011;3942;51.518;6.912;2024-03-08T21:48:54;42.58;;;23.05;;
7795;SDS011;3942;51.518;6.912;2024-03-08T21:53:58;47.17;;;26.88;;
7795;SDS011;3942;51.518;6.912;2024-03-08T21:59:01;52.22;;;28.67;;
7795;SDS011;3942;51.518;6.912;2024-03-08T22:04:04;43.15;;;22.15;;
7795;SDS011;3942;51.518;6.912;2024-03-08T22:09:07;44.30;;;25.52;;
7795;SDS011;3942;51.518;6.912;2024-03-08T22:14:11;53.67;;;27.90;;
7795;SDS011;3942;51.518;6.912;2024-03-08T22:19:14;49.65;;;27.05;;
7795;SDS011;3942;51.518;6.912;2024-03-08T22:24:17;53.40;;;26.17;;
7795;SDS011;3942;51.518;6.912;2024-03-08T22:29:19;46.45;;;23.92;;
7795;SDS011;3942;51.518;6.912;2024-03-08T22:34:21;51.08;;;28.00;;
7795;SDS011;3942;51.518;6.912;2024-03-08T22:39:25;51.15;;;27.42;;
7795;SDS011;3942;51.518;6.912;2024-03-08T22:44:29;51.35;;;28.25;;
7795;SDS011;3942;51.518;6.912;2024-03-08T22:49:34;55.85;;;28.85;;
7795;SDS011;3942;51.518;6.912;2024-03-08T22:54:38;53.78;;;29.63;;
7795;SDS011;3942;51.518;6.912;2024-03-08T22:59:40;55.55;;;29.30;;
7795;SDS011;3942;51.518;6.912;2024-03-08T23:04:42;50.97;;;27.85;;
7795;SDS011;3942;51.518;6.912;2024-03-08T23:09:46;57.10;;;30.67;;
7795;SDS011;3942;51.518;6.912;2024-03-08T23:14:48;54.28;;;29.52;;
7795;SDS011;3942;51.518;6.912;2024-03-08T23:19:51;55.50;;;31.65;;
7795;SDS011;3942;51.518;6.912;2024-03-08T23:24:54;55.58;;;28.40;;
7795;SDS011;3942;51.518;6.912;2024-03-08T23:29:58;53.17;;;27.92;;
7795;SDS011;3942;51.518;6.912;2024-03-08T23:35:00;49.85;;;26.08;;
7795;SDS011;3942;51.518;6.912;2024-03-08T23:40:04;54.15;;;27.98;;
7795;SDS011;3942;51.518;6.912;2024-03-08T23:45:08;55.17;;;31.33;;
7795;SDS011;3942;51.518;6.912;2024-03-08T23:50:12;65.88;;;35.38;;
7795;SDS011;3942;51.518;6.912;2024-03-08T23:55:16;69.43;;;37.22;;
